createdAt,value
2018-12-18T00:00:33.985Z,7.56
2018-12-18T00:01:34.002Z,7.50
2018-12-18T00:02:34.016Z,7.57
2018-12-18T00:03:39.272Z,7.56
2018-12-18T00:04:34.048Z,7.53
2018-12-18T00:05:34.069Z,7.50
2018-12-18T00:06:34.080Z,7.57
2018-12-18T00:07:34.099Z,7.54
2018-12-18T00:08:34.114Z,7.56
2018-12-18T00:09:34.129Z,7.56
2018-12-18T00:10:34.145Z,7.53
2018-12-18T00:11:34.163Z,7.50
2018-12-18T00:12:34.177Z,7.53
2018-12-18T00:13:34.191Z,7.56
2018-12-18T00:14:34.207Z,7.48
2018-12-18T00:15:34.227Z,7.57
2018-12-18T00:16:34.239Z,7.53
2018-12-18T00:17:34.258Z,7.54
2018-12-18T00:18:34.275Z,7.56
2018-12-18T00:19:34.290Z,7.58
2018-12-18T00:20:34.302Z,7.48
2018-12-18T00:21:34.321Z,7.47
2018-12-18T00:22:34.337Z,7.51
2018-12-18T00:23:34.355Z,7.48
2018-12-18T00:24:34.370Z,7.50
2018-12-18T00:25:34.386Z,7.50
2018-12-18T00:26:34.400Z,7.53
2018-12-18T00:27:34.415Z,7.53
2018-12-18T00:28:34.433Z,7.50
2018-12-18T00:29:34.449Z,7.48
2018-12-18T00:30:34.463Z,7.53
2018-12-18T00:31:34.483Z,7.51
2018-12-18T00:32:34.497Z,7.47
2018-12-18T00:33:34.515Z,7.48
2018-12-18T00:34:34.530Z,7.51
2018-12-18T00:35:34.544Z,7.54
2018-12-18T00:36:34.562Z,7.54
2018-12-18T00:37:34.575Z,7.56
2018-12-18T00:38:34.594Z,7.53
2018-12-18T00:39:34.611Z,7.56
2018-12-18T00:40:34.623Z,7.53
2018-12-18T00:41:34.639Z,7.57
2018-12-18T00:42:34.656Z,7.51
2018-12-18T00:43:34.734Z,7.53
2018-12-18T00:44:34.687Z,7.57
2018-12-18T00:45:34.706Z,7.51
2018-12-18T00:46:34.721Z,7.51
2018-12-18T00:47:34.738Z,7.51
2018-12-18T00:48:34.756Z,7.51
2018-12-18T00:49:34.770Z,7.43
2018-12-18T00:50:34.783Z,7.42
2018-12-18T00:51:34.800Z,7.54
2018-12-18T00:52:34.818Z,7.51
2018-12-18T00:53:34.833Z,7.48
2018-12-18T00:54:34.848Z,7.50
2018-12-18T00:55:34.864Z,7.53
2018-12-18T00:56:34.879Z,7.45
2018-12-18T00:57:34.895Z,7.47
2018-12-18T00:58:34.911Z,7.51
2018-12-18T00:59:34.930Z,7.47
2018-12-18T01:00:34.948Z,7.45
2018-12-18T01:01:34.963Z,7.40
2018-12-18T01:02:34.976Z,7.43
2018-12-18T01:03:34.995Z,7.50
2018-12-18T01:04:35.011Z,7.43
2018-12-18T01:05:35.024Z,7.50
2018-12-18T01:06:35.043Z,7.47
2018-12-18T01:07:35.057Z,7.47
2018-12-18T01:08:35.077Z,7.45
2018-12-18T01:09:35.089Z,7.54
2018-12-18T01:10:35.106Z,7.54
2018-12-18T01:11:35.120Z,7.51
2018-12-18T01:12:35.136Z,7.48
2018-12-18T01:13:35.154Z,7.50
2018-12-18T01:14:35.168Z,7.50
2018-12-18T01:15:35.185Z,7.51
2018-12-18T01:16:35.203Z,7.48
2018-12-18T01:17:35.219Z,7.51
2018-12-18T01:18:35.233Z,7.50
2018-12-18T01:19:35.252Z,7.48
2018-12-18T01:20:35.268Z,7.42
2018-12-18T01:21:35.283Z,7.45
2018-12-18T01:22:35.298Z,7.43
2018-12-18T01:23:35.316Z,7.48
2018-12-18T01:24:35.331Z,7.51
2018-12-18T01:25:35.347Z,7.48
2018-12-18T01:26:35.364Z,7.40
2018-12-18T01:27:35.378Z,7.39
2018-12-18T01:28:35.393Z,7.48
2018-12-18T01:29:35.412Z,7.43
2018-12-18T01:30:35.432Z,7.47
2018-12-18T01:31:35.445Z,7.45
2018-12-18T01:32:35.460Z,7.43
2018-12-18T01:33:35.476Z,7.50
2018-12-18T01:34:35.491Z,7.56
2018-12-18T01:35:35.507Z,7.47
2018-12-18T01:36:35.522Z,7.50
2018-12-18T01:37:35.539Z,7.51
2018-12-18T01:38:35.557Z,7.45
2018-12-18T01:39:35.571Z,7.40
2018-12-18T01:40:35.589Z,7.50
2018-12-18T01:41:35.605Z,7.47
2018-12-18T01:42:35.619Z,7.50
2018-12-18T01:43:35.638Z,7.47
2018-12-18T01:44:35.655Z,7.48
2018-12-18T01:45:35.669Z,7.50
2018-12-18T01:46:35.684Z,7.56
2018-12-18T01:47:35.702Z,7.40
2018-12-18T01:48:35.715Z,7.51
2018-12-18T01:49:35.734Z,7.50
2018-12-18T01:50:35.749Z,7.42
2018-12-18T01:51:35.764Z,7.42
2018-12-18T01:52:35.782Z,7.43
2018-12-18T01:53:35.796Z,7.40
2018-12-18T01:54:35.811Z,7.42
2018-12-18T01:55:35.899Z,7.50
2018-12-18T01:56:35.843Z,7.43
2018-12-18T01:57:35.863Z,7.39
2018-12-18T01:58:35.878Z,7.40
2018-12-18T01:59:35.894Z,7.50
2018-12-18T02:00:35.926Z,7.47
2018-12-18T02:01:35.926Z,7.42
2018-12-18T02:02:35.940Z,7.39
2018-12-18T02:03:35.957Z,7.35
2018-12-18T02:04:35.973Z,7.42
2018-12-18T02:05:35.991Z,7.38
2018-12-18T02:06:36.008Z,7.42
2018-12-18T02:07:36.020Z,7.43
2018-12-18T02:08:36.038Z,7.48
2018-12-18T02:09:36.054Z,7.54
2018-12-18T02:10:36.068Z,7.43
2018-12-18T02:11:36.085Z,7.53
2018-12-18T02:12:36.101Z,7.48
2018-12-18T02:13:36.118Z,7.48
2018-12-18T02:14:36.135Z,7.54
2018-12-18T02:15:36.150Z,7.50
2018-12-18T02:16:36.166Z,7.40
2018-12-18T02:17:36.182Z,7.51
2018-12-18T02:18:36.197Z,7.53
2018-12-18T02:19:36.215Z,7.48
2018-12-18T02:20:36.229Z,7.47
2018-12-18T02:21:36.248Z,7.54
2018-12-18T02:22:36.261Z,7.42
2018-12-18T02:23:36.278Z,7.40
2018-12-18T02:24:36.293Z,7.39
2018-12-18T02:25:36.311Z,7.47
2018-12-18T02:26:36.325Z,7.50
2018-12-18T02:27:36.344Z,7.53
2018-12-18T02:28:36.359Z,7.53
2018-12-18T02:29:36.375Z,7.45
2018-12-18T02:30:36.394Z,7.40
2018-12-18T02:31:36.415Z,7.54
2018-12-18T02:32:36.422Z,7.39
2018-12-18T02:33:36.437Z,7.47
2018-12-18T02:34:36.454Z,7.40
2018-12-18T02:35:36.470Z,7.39
2018-12-18T02:36:36.486Z,7.43
2018-12-18T02:37:36.501Z,7.45
2018-12-18T02:38:36.521Z,7.40
2018-12-18T02:39:36.537Z,7.39
2018-12-18T02:40:36.554Z,7.51
2018-12-18T02:41:36.567Z,7.51
2018-12-18T02:42:36.584Z,7.50
2018-12-18T02:43:36.602Z,7.54
2018-12-18T02:44:36.619Z,7.48
2018-12-18T02:45:36.633Z,7.47
2018-12-18T02:46:36.646Z,7.45
2018-12-18T02:47:36.664Z,7.54
2018-12-18T02:48:36.680Z,7.42
2018-12-18T02:49:36.696Z,7.43
2018-12-18T02:50:36.713Z,7.47
2018-12-18T02:51:36.737Z,7.50
2018-12-18T02:52:36.748Z,7.50
2018-12-18T02:53:36.779Z,7.51
2018-12-18T02:54:36.779Z,7.50
2018-12-18T02:55:36.794Z,7.50
2018-12-18T02:56:36.813Z,7.43
2018-12-18T02:57:36.825Z,7.51
2018-12-18T02:58:36.839Z,7.53
2018-12-18T02:59:36.859Z,7.50
2018-12-18T03:00:36.870Z,7.51
2018-12-18T03:01:36.889Z,7.48
2018-12-18T03:02:36.904Z,7.48
2018-12-18T03:03:36.920Z,7.50
2018-12-18T03:04:36.938Z,7.48
2018-12-18T03:05:36.955Z,7.47
2018-12-18T03:06:36.967Z,7.47
2018-12-18T03:07:36.986Z,7.48
2018-12-18T03:08:36.998Z,7.50
2018-12-18T03:09:37.021Z,7.51
2018-12-18T03:10:37.033Z,7.51
2018-12-18T03:11:37.048Z,7.51
2018-12-18T03:12:37.069Z,7.50
2018-12-18T03:13:37.079Z,7.51
2018-12-18T03:14:37.094Z,7.47
2018-12-18T03:15:37.113Z,7.45
2018-12-18T03:16:37.130Z,7.48
2018-12-18T03:17:37.145Z,7.47
2018-12-18T03:18:37.161Z,7.40
2018-12-18T03:19:37.179Z,7.48
2018-12-18T03:20:37.192Z,7.48
2018-12-18T03:21:37.210Z,7.45
2018-12-18T03:22:37.225Z,7.50
2018-12-18T03:23:37.241Z,7.51
2018-12-18T03:24:37.258Z,7.48
2018-12-18T03:25:37.273Z,7.51
2018-12-18T03:26:37.293Z,7.40
2018-12-18T03:27:37.308Z,7.47
2018-12-18T03:28:37.326Z,7.45
2018-12-18T03:29:37.338Z,7.47
2018-12-18T03:30:37.359Z,7.50
2018-12-18T03:31:37.371Z,7.47
2018-12-18T03:32:37.386Z,7.53
2018-12-18T03:33:37.403Z,7.47
2018-12-18T03:34:37.419Z,7.48
2018-12-18T03:35:37.436Z,7.54
2018-12-18T03:36:37.447Z,7.53
2018-12-18T03:37:37.465Z,7.48
2018-12-18T03:38:37.479Z,7.47
2018-12-18T03:39:37.498Z,7.43
2018-12-18T03:40:37.513Z,7.50
2018-12-18T03:41:37.529Z,7.47
2018-12-18T03:42:37.543Z,7.50
2018-12-18T03:43:37.563Z,7.51
2018-12-18T03:44:37.576Z,7.53
2018-12-18T03:45:37.593Z,7.48
2018-12-18T03:46:37.608Z,7.47
2018-12-18T03:47:37.627Z,7.53
2018-12-18T03:48:37.641Z,7.42
2018-12-18T03:49:37.658Z,7.43
2018-12-18T03:50:37.674Z,7.45
2018-12-18T03:51:37.692Z,7.39
2018-12-18T03:52:37.703Z,7.51
2018-12-18T03:53:37.722Z,7.45
2018-12-18T03:54:37.736Z,7.43
2018-12-18T03:55:37.753Z,7.47
2018-12-18T03:56:37.769Z,7.53
2018-12-18T03:57:37.794Z,7.45
2018-12-18T03:58:37.801Z,7.54
2018-12-18T03:59:37.817Z,7.48
2018-12-18T04:00:37.830Z,7.43
2018-12-18T04:01:37.850Z,7.42
2018-12-18T04:02:37.863Z,7.45
2018-12-18T04:03:37.882Z,7.45
2018-12-18T04:04:37.897Z,7.39
2018-12-18T04:05:37.914Z,7.42
2018-12-18T04:06:37.926Z,7.38
2018-12-18T04:07:37.946Z,7.43
2018-12-18T04:08:37.959Z,7.39
2018-12-18T04:09:37.976Z,7.36
2018-12-18T04:10:37.991Z,7.40
2018-12-18T04:11:38.007Z,7.35
2018-12-18T04:12:38.027Z,7.40
2018-12-18T04:13:38.039Z,7.43
2018-12-18T04:14:38.057Z,7.36
2018-12-18T04:15:38.074Z,7.36
2018-12-18T04:16:38.089Z,7.33
2018-12-18T04:17:38.106Z,7.35
2018-12-18T04:18:38.119Z,7.48
2018-12-18T04:19:38.141Z,7.38
2018-12-18T04:20:38.158Z,7.38
2018-12-18T04:21:38.167Z,7.38
2018-12-18T04:22:38.183Z,7.43
2018-12-18T04:23:38.202Z,7.35
2018-12-18T04:24:38.215Z,7.39
2018-12-18T04:25:38.234Z,7.45
2018-12-18T04:26:38.249Z,7.39
2018-12-18T04:27:38.266Z,7.35
2018-12-18T04:28:38.279Z,7.40
2018-12-18T04:29:38.298Z,7.39
2018-12-18T04:30:38.312Z,7.33
2018-12-18T04:31:38.327Z,7.39
2018-12-18T04:32:38.352Z,7.33
2018-12-18T04:33:38.361Z,7.32
2018-12-18T04:34:42.833Z,7.50
2018-12-18T04:35:38.391Z,7.45
2018-12-18T04:36:38.405Z,7.45
2018-12-18T04:37:38.424Z,7.43
2018-12-18T04:38:38.441Z,7.40
2018-12-18T04:39:38.454Z,7.38
2018-12-18T04:40:38.471Z,7.33
2018-12-18T04:41:38.487Z,7.43
2018-12-18T04:42:38.501Z,7.40
2018-12-18T04:43:38.517Z,7.45
2018-12-18T04:44:38.536Z,7.33
2018-12-18T04:45:38.551Z,7.31
2018-12-18T04:46:38.565Z,7.42
2018-12-18T04:47:38.581Z,7.38
2018-12-18T04:48:38.604Z,7.40
2018-12-18T04:49:38.615Z,7.33
2018-12-18T04:50:38.631Z,7.29
2018-12-18T04:51:38.650Z,7.31
2018-12-18T04:52:38.661Z,7.21
2018-12-18T04:53:38.675Z,7.31
2018-12-18T04:54:38.692Z,7.29
2018-12-18T04:55:38.710Z,7.17
2018-12-18T04:56:38.723Z,7.24
2018-12-18T04:57:38.739Z,7.17
2018-12-18T04:58:38.755Z,7.24
2018-12-18T04:59:38.776Z,7.15
2018-12-18T05:00:38.789Z,7.29
2018-12-18T05:01:38.805Z,7.23
2018-12-18T05:02:38.818Z,7.23
2018-12-18T05:03:38.838Z,7.24
2018-12-18T05:04:38.850Z,7.20
2018-12-18T05:05:38.865Z,7.17
2018-12-18T05:06:38.884Z,7.23
2018-12-18T05:07:38.900Z,7.28
2018-12-18T05:08:38.914Z,7.31
2018-12-18T05:09:38.930Z,7.17
2018-12-18T05:10:38.947Z,7.20
2018-12-18T05:11:39.012Z,7.24
2018-12-18T05:12:38.983Z,7.20
2018-12-18T05:13:38.991Z,7.18
2018-12-18T05:14:39.012Z,7.20
2018-12-18T05:15:39.027Z,7.21
2018-12-18T05:16:39.038Z,7.17
2018-12-18T05:17:39.054Z,7.20
2018-12-18T05:18:39.070Z,7.17
2018-12-18T05:19:39.086Z,7.21
2018-12-18T05:20:39.105Z,7.20
2018-12-18T05:21:39.122Z,7.15
2018-12-18T05:22:39.134Z,7.14
2018-12-18T05:23:39.152Z,7.15
2018-12-18T05:24:39.168Z,7.14
2018-12-18T05:25:39.182Z,7.07
2018-12-18T05:26:39.196Z,7.03
2018-12-18T05:27:39.212Z,7.02
2018-12-18T05:28:39.229Z,7.10
2018-12-18T05:29:39.245Z,7.06
2018-12-18T05:30:39.264Z,7.17
2018-12-18T05:31:39.279Z,7.03
2018-12-18T05:32:39.293Z,7.06
2018-12-18T05:33:39.308Z,7.03
2018-12-18T05:34:39.322Z,7.18
2018-12-18T05:35:39.339Z,7.23
2018-12-18T05:36:39.353Z,7.23
2018-12-18T05:37:39.369Z,7.20
2018-12-18T05:38:39.388Z,7.23
2018-12-18T05:39:39.403Z,7.23
2018-12-18T05:40:39.419Z,7.14
2018-12-18T05:41:39.434Z,7.18
2018-12-18T05:42:39.452Z,7.21
2018-12-18T05:43:39.468Z,7.20
2018-12-18T05:44:39.481Z,7.23
2018-12-18T05:45:39.498Z,7.18
2018-12-18T05:46:39.574Z,7.23
2018-12-18T05:47:39.530Z,7.24
2018-12-18T05:48:39.543Z,7.21
2018-12-18T05:49:39.562Z,7.21
2018-12-18T05:50:39.575Z,7.21
2018-12-18T05:51:39.591Z,7.15
2018-12-18T05:52:39.610Z,7.17
2018-12-18T05:53:39.622Z,7.17
2018-12-18T05:54:39.640Z,7.23
2018-12-18T05:55:39.655Z,7.21
2018-12-18T05:56:39.674Z,7.18
2018-12-18T05:57:39.688Z,7.18
2018-12-18T05:58:39.702Z,7.20
2018-12-18T05:59:39.718Z,7.21
2018-12-18T06:00:39.735Z,7.21
2018-12-18T06:01:39.752Z,7.29
2018-12-18T06:02:39.765Z,7.17
2018-12-18T06:03:39.782Z,7.17
2018-12-18T06:04:39.799Z,7.20
2018-12-18T06:05:39.816Z,7.29
2018-12-18T06:06:39.829Z,7.31
2018-12-18T06:07:39.845Z,7.33
2018-12-18T06:08:39.862Z,7.33
2018-12-18T06:09:39.878Z,7.36
2018-12-18T06:10:39.892Z,7.40
2018-12-18T06:11:39.961Z,7.25
2018-12-18T06:12:39.926Z,7.31
2018-12-18T06:13:39.940Z,7.40
2018-12-18T06:14:39.958Z,7.35
2018-12-18T06:15:39.972Z,7.39
2018-12-18T06:16:39.989Z,7.43
2018-12-18T06:17:40.009Z,7.32
2018-12-18T06:18:40.022Z,7.36
2018-12-18T06:19:40.036Z,7.36
2018-12-18T06:20:40.054Z,7.38
2018-12-18T06:21:40.069Z,7.43
2018-12-18T06:22:40.086Z,7.39
2018-12-18T06:23:40.102Z,7.39
2018-12-18T06:24:40.118Z,7.33
2018-12-18T06:25:40.135Z,7.47
2018-12-18T06:26:40.251Z,7.45
2018-12-18T06:27:40.166Z,7.32
2018-12-18T06:28:40.181Z,7.42
2018-12-18T06:29:40.195Z,7.39
2018-12-18T06:30:40.213Z,7.33
2018-12-18T06:31:40.230Z,7.47
2018-12-18T06:32:40.244Z,7.36
2018-12-18T06:33:40.261Z,7.51
2018-12-18T06:34:40.279Z,7.39
2018-12-18T06:35:40.294Z,7.38
2018-12-18T06:36:40.309Z,7.35
2018-12-18T06:37:40.326Z,7.45
2018-12-18T06:38:40.339Z,7.43
2018-12-18T06:39:40.361Z,7.35
2018-12-18T06:40:40.374Z,7.38
2018-12-18T06:41:40.387Z,7.36
2018-12-18T06:42:40.405Z,7.43
2018-12-18T06:43:40.420Z,7.47
2018-12-18T06:44:40.439Z,7.45
2018-12-18T06:45:40.454Z,7.31
2018-12-18T06:46:40.470Z,7.43
2018-12-18T06:47:40.488Z,7.45
2018-12-18T06:48:40.505Z,7.31
2018-12-18T06:49:40.522Z,7.47
2018-12-18T06:50:40.539Z,7.47
2018-12-18T06:51:40.548Z,7.40
2018-12-18T06:52:40.566Z,7.38
2018-12-18T06:53:40.581Z,7.31
2018-12-18T06:54:40.598Z,7.32
2018-12-18T06:55:40.613Z,7.25
2018-12-18T06:56:40.631Z,7.23
2018-12-18T06:57:40.646Z,7.21
2018-12-18T06:58:40.664Z,7.20
2018-12-18T06:59:40.677Z,7.20
2018-12-18T07:00:40.696Z,7.21
2018-12-18T07:01:40.709Z,7.25
2018-12-18T07:02:40.725Z,7.15
2018-12-18T07:03:40.743Z,7.21
2018-12-18T07:04:40.756Z,7.20
2018-12-18T07:05:40.772Z,7.20
2018-12-18T07:06:40.789Z,7.17
2018-12-18T07:07:40.812Z,7.17
2018-12-18T07:08:40.820Z,7.20
2018-12-18T07:09:40.837Z,7.11
2018-12-18T07:10:40.856Z,7.11
2018-12-18T07:11:40.872Z,7.07
2018-12-18T07:12:40.887Z,7.17
2018-12-18T07:13:40.904Z,7.07
2018-12-18T07:14:40.919Z,7.13
2018-12-18T07:15:40.936Z,7.20
2018-12-18T07:16:40.951Z,7.06
2018-12-18T07:17:40.968Z,7.17
2018-12-18T07:18:40.980Z,7.11
2018-12-18T07:19:40.999Z,6.96
2018-12-18T07:20:41.015Z,6.97
2018-12-18T07:21:41.031Z,6.97
2018-12-18T07:22:41.046Z,6.95
2018-12-18T07:23:41.062Z,7.00
2018-12-18T07:24:41.077Z,6.99
2018-12-18T07:25:41.092Z,6.96
2018-12-18T07:26:41.107Z,6.96
2018-12-18T07:27:41.125Z,6.95
2018-12-18T07:28:41.140Z,6.97
2018-12-18T07:29:41.154Z,6.93
2018-12-18T07:30:41.173Z,6.99
2018-12-18T07:31:41.187Z,6.95
2018-12-18T07:32:41.201Z,6.93
2018-12-18T07:33:41.220Z,6.89
2018-12-18T07:34:42.587Z,6.89
2018-12-18T07:35:41.249Z,6.82
2018-12-18T07:36:41.266Z,6.78
2018-12-18T07:37:41.279Z,6.79
2018-12-18T07:38:41.297Z,6.77
2018-12-18T07:39:41.317Z,6.78
2018-12-18T07:40:41.327Z,6.81
2018-12-18T07:41:41.346Z,6.75
2018-12-18T07:42:41.361Z,6.77
2018-12-18T07:43:41.374Z,6.74
2018-12-18T07:44:41.391Z,6.88
2018-12-18T07:45:41.409Z,6.93
2018-12-18T07:46:41.422Z,7.02
2018-12-18T07:47:41.441Z,6.96
2018-12-18T07:48:41.452Z,6.93
2018-12-18T07:49:41.484Z,6.92
2018-12-18T07:50:41.484Z,6.88
2018-12-18T07:51:41.503Z,6.87
2018-12-18T07:52:41.516Z,6.79
2018-12-18T07:53:41.534Z,6.77
2018-12-18T07:54:41.548Z,6.70
2018-12-18T07:55:41.568Z,6.81
2018-12-18T07:56:41.579Z,6.78
2018-12-18T07:57:41.643Z,6.69
2018-12-18T07:58:41.612Z,6.66
2018-12-18T07:59:41.628Z,6.63
2018-12-18T08:00:41.642Z,6.57
2018-12-18T08:01:41.655Z,6.63
2018-12-18T08:02:41.671Z,6.56
2018-12-18T08:03:41.689Z,6.56
2018-12-18T08:04:41.703Z,6.45
2018-12-18T08:05:41.718Z,6.54
2018-12-18T08:06:41.733Z,6.51
2018-12-18T08:07:41.748Z,6.48
2018-12-18T08:08:41.763Z,6.51
2018-12-18T08:09:41.780Z,6.48
2018-12-18T08:10:41.796Z,6.46
2018-12-18T08:11:41.810Z,6.49
2018-12-18T08:12:41.825Z,6.46
2018-12-18T08:13:41.840Z,6.46
2018-12-18T08:14:41.856Z,6.42
2018-12-18T08:15:41.872Z,6.44
2018-12-18T08:16:41.886Z,6.38
2018-12-18T08:17:41.903Z,6.39
2018-12-18T08:18:41.920Z,6.30
2018-12-18T08:19:41.933Z,6.41
2018-12-18T08:20:41.950Z,6.44
2018-12-18T08:21:41.965Z,6.36
2018-12-18T08:22:41.979Z,6.33
2018-12-18T08:23:41.997Z,6.31
2018-12-18T08:24:42.013Z,6.35
2018-12-18T08:25:42.026Z,6.35
2018-12-18T08:26:42.045Z,6.41
2018-12-18T08:27:42.059Z,6.28
2018-12-18T08:28:42.074Z,6.30
2018-12-18T08:29:42.087Z,6.39
2018-12-18T08:30:42.105Z,6.31
2018-12-18T08:31:42.170Z,6.30
2018-12-18T08:32:42.133Z,6.33
2018-12-18T08:33:42.149Z,6.44
2018-12-18T08:34:42.166Z,6.39
2018-12-18T08:35:42.188Z,6.35
2018-12-18T08:36:42.227Z,6.42
2018-12-18T08:37:42.212Z,6.44
2018-12-18T08:38:42.233Z,6.30
2018-12-18T08:39:42.241Z,6.39
2018-12-18T08:40:42.260Z,6.31
2018-12-18T08:41:42.272Z,6.42
2018-12-18T08:42:42.287Z,6.38
2018-12-18T08:43:42.309Z,6.46
2018-12-18T08:44:42.318Z,6.41
2018-12-18T08:45:42.339Z,6.48
2018-12-18T08:46:42.353Z,6.49
2018-12-18T08:47:42.362Z,6.45
2018-12-18T08:48:42.383Z,6.46
2018-12-18T08:49:42.400Z,6.49
2018-12-18T08:50:42.427Z,6.44
2018-12-18T08:51:42.436Z,6.46
2018-12-18T08:52:42.497Z,6.49
2018-12-18T08:53:42.454Z,6.46
2018-12-18T08:54:42.470Z,6.49
2018-12-18T08:55:42.490Z,6.48
2018-12-18T08:56:42.503Z,6.44
2018-12-18T08:57:42.546Z,6.44
2018-12-18T08:58:42.533Z,6.48
2018-12-18T08:59:42.545Z,6.52
2018-12-18T09:00:42.562Z,6.46
2018-12-18T09:01:42.578Z,6.52
2018-12-18T09:02:42.596Z,6.51
2018-12-18T09:03:43.180Z,6.54
2018-12-18T09:04:42.620Z,6.56
2018-12-18T09:05:43.300Z,6.54
2018-12-18T09:06:42.670Z,6.46
2018-12-18T09:07:42.670Z,6.57
2018-12-18T09:08:42.681Z,6.54
2018-12-18T09:09:42.701Z,6.60
2018-12-18T09:10:42.715Z,6.63
2018-12-18T09:11:42.730Z,6.60
2018-12-18T09:12:42.748Z,6.59
2018-12-18T09:13:42.758Z,6.66
2018-12-18T09:14:42.777Z,6.57
2018-12-18T09:15:42.789Z,6.56
2018-12-18T09:16:42.809Z,6.57
2018-12-18T09:17:42.821Z,6.67
2018-12-18T09:18:42.835Z,6.74
2018-12-18T09:19:42.853Z,6.66
2018-12-18T09:20:42.865Z,6.64
2018-12-18T09:21:42.884Z,6.74
2018-12-18T09:22:42.899Z,6.75
2018-12-18T09:23:42.912Z,6.69
2018-12-18T09:24:42.926Z,6.74
2018-12-18T09:25:42.942Z,6.69
2018-12-18T09:26:42.958Z,6.70
2018-12-18T09:27:42.973Z,6.74
2018-12-18T09:28:42.992Z,6.72
2018-12-18T09:29:43.006Z,6.72
2018-12-18T09:30:43.029Z,6.75
2018-12-18T09:31:43.038Z,6.82
2018-12-18T09:32:43.056Z,6.87
2018-12-18T09:33:43.068Z,6.96
2018-12-18T09:34:43.083Z,6.93
2018-12-18T09:35:49.523Z,6.95
2018-12-18T09:36:43.115Z,6.97
2018-12-18T09:37:43.127Z,6.92
2018-12-18T09:38:43.146Z,6.99
2018-12-18T09:39:43.159Z,7.10
2018-12-18T09:40:43.237Z,7.02
2018-12-18T09:41:43.242Z,7.13
2018-12-18T09:42:43.208Z,7.21
2018-12-18T09:43:43.226Z,7.18
2018-12-18T09:44:43.237Z,7.14
2018-12-18T09:45:43.251Z,7.23
2018-12-18T09:46:43.316Z,7.23
2018-12-18T09:47:43.286Z,7.32
2018-12-18T09:48:43.302Z,7.28
2018-12-18T09:49:43.316Z,7.38
2018-12-18T09:50:43.333Z,7.40
2018-12-18T09:51:43.348Z,7.48
2018-12-18T09:52:43.363Z,7.48
2018-12-18T09:53:43.377Z,7.42
2018-12-18T09:54:43.394Z,7.40
2018-12-18T09:55:43.410Z,7.40
2018-12-18T09:56:43.523Z,7.48
2018-12-18T09:57:44.194Z,7.56
2018-12-18T09:58:43.459Z,7.63
2018-12-18T09:59:43.728Z,7.82
2018-12-18T10:00:43.491Z,7.90
2018-12-18T10:01:43.507Z,7.82
2018-12-18T10:02:43.521Z,7.80
2018-12-18T10:03:43.536Z,7.61
2018-12-18T10:04:43.554Z,7.69
2018-12-18T10:05:43.570Z,7.73
2018-12-18T10:06:45.039Z,7.69
2018-12-18T10:07:43.604Z,7.75
2018-12-18T10:08:43.619Z,7.95
2018-12-18T10:09:43.634Z,7.91
2018-12-18T10:10:43.649Z,7.95
2018-12-18T10:11:43.665Z,8.01
2018-12-18T10:12:43.681Z,8.10
2018-12-18T10:13:44.149Z,8.05
2018-12-18T10:14:43.716Z,8.05
2018-12-18T10:15:43.738Z,8.01
2018-12-18T10:16:43.746Z,8.18
2018-12-18T10:17:43.766Z,8.08
2018-12-18T10:18:43.779Z,8.16
2018-12-18T10:19:43.798Z,8.38
2018-12-18T10:20:43.812Z,8.36
2018-12-18T10:21:43.830Z,8.18
2018-12-18T10:22:43.848Z,8.19
2018-12-18T10:23:43.864Z,8.46
2018-12-18T10:24:43.879Z,8.41
2018-12-18T10:25:43.897Z,8.46
2018-12-18T10:26:43.911Z,8.36
2018-12-18T10:27:43.931Z,8.41
2018-12-18T10:28:43.943Z,8.48
2018-12-18T10:29:43.963Z,8.52
2018-12-18T10:30:43.979Z,8.63
2018-12-18T10:31:43.993Z,8.74
2018-12-18T10:32:44.020Z,8.87
2018-12-18T10:33:44.029Z,8.94
2018-12-18T10:34:44.242Z,8.87
2018-12-18T10:35:44.062Z,8.95
2018-12-18T10:36:44.080Z,9.02
2018-12-18T10:37:44.094Z,8.99
2018-12-18T10:38:44.109Z,8.89
2018-12-18T10:39:44.128Z,8.87
2018-12-18T10:40:44.150Z,8.79
2018-12-18T10:41:44.162Z,8.84
2018-12-18T10:42:44.178Z,9.11
2018-12-18T10:43:44.197Z,9.06
2018-12-18T10:44:44.208Z,9.02
2018-12-18T10:45:44.226Z,8.95
2018-12-18T10:46:44.244Z,9.02
2018-12-18T10:47:44.263Z,8.92
2018-12-18T10:48:44.276Z,8.85
2018-12-18T10:49:44.292Z,8.88
2018-12-18T10:50:44.312Z,8.71
2018-12-18T10:51:44.327Z,8.84
2018-12-18T10:52:44.351Z,8.73
2018-12-18T10:53:44.359Z,8.73
2018-12-18T10:54:44.376Z,8.74
2018-12-18T10:55:44.396Z,8.73
2018-12-18T10:56:44.412Z,8.74
2018-12-18T10:57:44.436Z,8.70
2018-12-18T10:58:44.447Z,8.84
2018-12-18T10:59:44.461Z,8.88
2018-12-18T11:00:44.479Z,8.85
2018-12-18T11:01:44.495Z,8.78
2018-12-18T11:02:44.515Z,8.87
2018-12-18T11:03:44.538Z,8.88
2018-12-18T11:04:44.549Z,8.89
2018-12-18T11:05:44.564Z,8.92
2018-12-18T11:06:44.582Z,9.11
2018-12-18T11:07:44.598Z,9.00
2018-12-18T11:08:44.612Z,8.99
2018-12-18T11:09:44.632Z,9.02
2018-12-18T11:10:44.648Z,9.03
2018-12-18T11:11:44.664Z,8.95
2018-12-18T11:12:44.681Z,9.00
2018-12-18T11:13:44.698Z,9.02
2018-12-18T11:14:44.715Z,9.08
2018-12-18T11:15:44.731Z,9.04
2018-12-18T11:16:44.746Z,9.13
2018-12-18T11:17:44.764Z,9.19
2018-12-18T11:18:44.780Z,9.14
2018-12-18T11:19:44.798Z,9.06
2018-12-18T11:20:44.819Z,9.13
2018-12-18T11:21:44.831Z,9.16
2018-12-18T11:22:44.851Z,9.13
2018-12-18T11:23:44.869Z,9.22
2018-12-18T11:24:44.881Z,9.19
2018-12-18T11:25:44.900Z,9.21
2018-12-18T11:26:44.918Z,9.25
2018-12-18T11:27:44.936Z,9.19
2018-12-18T11:28:44.951Z,9.18
2018-12-18T11:29:44.966Z,9.21
2018-12-18T11:30:44.985Z,9.21
2018-12-18T11:31:45.001Z,9.22
2018-12-18T11:32:45.020Z,9.22
2018-12-18T11:33:45.036Z,9.18
2018-12-18T11:34:45.051Z,9.22
2018-12-18T11:35:45.076Z,9.21
2018-12-18T11:36:45.084Z,9.22
2018-12-18T11:37:45.103Z,9.23
2018-12-18T11:38:45.121Z,9.23
2018-12-18T11:39:45.138Z,9.19
2018-12-18T11:40:45.154Z,9.23
2018-12-18T11:41:45.270Z,9.25
2018-12-18T11:42:45.187Z,9.28
2018-12-18T11:43:45.204Z,9.25
2018-12-18T11:44:45.222Z,9.25
2018-12-18T11:45:45.235Z,9.29
2018-12-18T11:46:45.330Z,9.29
2018-12-18T11:47:45.268Z,9.28
2018-12-18T11:48:45.737Z,9.34
2018-12-18T11:49:45.389Z,9.31
2018-12-18T11:50:45.323Z,9.32
2018-12-18T11:51:45.337Z,9.40
2018-12-18T11:52:45.352Z,9.39
2018-12-18T11:53:45.372Z,9.34
2018-12-18T11:54:45.386Z,9.39
2018-12-18T11:55:45.403Z,9.39
2018-12-18T11:56:45.421Z,9.29
2018-12-18T11:57:45.439Z,9.34
2018-12-18T11:58:45.453Z,9.36
2018-12-18T11:59:45.470Z,9.29
2018-12-18T12:00:45.489Z,9.32
2018-12-18T12:01:45.506Z,9.29
2018-12-18T12:02:45.520Z,9.29
2018-12-18T12:03:45.540Z,9.39
2018-12-18T12:04:45.555Z,9.32
2018-12-18T12:05:45.571Z,9.28
2018-12-18T12:06:45.589Z,9.34
2018-12-18T12:07:45.607Z,9.29
2018-12-18T12:08:45.621Z,9.26
2018-12-18T12:09:45.639Z,9.37
2018-12-18T12:10:45.656Z,9.39
2018-12-18T12:11:45.674Z,9.41
2018-12-18T12:12:45.691Z,9.39
2018-12-18T12:13:45.705Z,9.29
2018-12-18T12:14:45.723Z,9.36
2018-12-18T12:15:45.742Z,9.37
2018-12-18T12:16:45.755Z,9.36
2018-12-18T12:17:45.774Z,9.29
2018-12-18T12:18:45.791Z,9.37
2018-12-18T12:19:45.806Z,9.31
2018-12-18T12:20:45.822Z,9.36
2018-12-18T12:21:45.842Z,9.28
2018-12-18T12:22:46.110Z,9.34
2018-12-18T12:23:45.876Z,9.36
2018-12-18T12:24:45.890Z,9.41
2018-12-18T12:25:46.063Z,9.37
2018-12-18T12:26:45.926Z,9.37
2018-12-18T12:27:45.943Z,9.39
2018-12-18T12:28:45.958Z,9.32
2018-12-18T12:29:45.974Z,9.43
2018-12-18T12:30:45.993Z,9.39
2018-12-18T12:31:46.012Z,9.40
2018-12-18T12:32:46.029Z,9.29
2018-12-18T12:33:46.041Z,9.31
2018-12-18T12:34:46.061Z,9.43
2018-12-18T12:35:46.078Z,9.40
2018-12-18T12:36:46.097Z,9.36
2018-12-18T12:37:46.110Z,9.32
2018-12-18T12:38:46.129Z,9.29
2018-12-18T12:39:46.144Z,9.40
2018-12-18T12:40:46.220Z,9.43
2018-12-18T12:41:46.177Z,9.46
2018-12-18T12:42:46.194Z,9.47
2018-12-18T12:43:46.212Z,9.46
2018-12-18T12:44:46.227Z,9.47
2018-12-18T12:45:46.247Z,9.47
2018-12-18T12:46:46.261Z,9.46
2018-12-18T12:47:46.278Z,9.46
2018-12-18T12:48:46.298Z,9.47
2018-12-18T12:49:46.311Z,9.47
2018-12-18T12:50:46.336Z,9.51
2018-12-18T12:51:46.355Z,9.46
2018-12-18T12:52:46.362Z,9.50
2018-12-18T12:53:46.381Z,9.41
2018-12-18T12:54:46.396Z,9.54
2018-12-18T12:55:46.421Z,9.44
2018-12-18T12:56:46.433Z,9.46
2018-12-18T12:57:46.450Z,9.44
2018-12-18T12:58:46.467Z,9.47
2018-12-18T12:59:46.483Z,9.46
2018-12-18T13:00:46.500Z,9.48
2018-12-18T13:01:46.517Z,9.44
2018-12-18T13:02:46.534Z,9.43
2018-12-18T13:03:46.550Z,9.46
2018-12-18T13:04:46.564Z,9.40
2018-12-18T13:05:46.583Z,9.43
2018-12-18T13:06:46.603Z,9.47
2018-12-18T13:07:46.620Z,9.34
2018-12-18T13:08:46.636Z,9.31
2018-12-18T13:09:46.649Z,9.29
2018-12-18T13:10:46.669Z,9.29
2018-12-18T13:11:46.686Z,9.32
2018-12-18T13:12:46.706Z,9.39
2018-12-18T13:13:46.716Z,9.34
2018-12-18T13:14:46.736Z,9.46
2018-12-18T13:15:46.756Z,9.31
2018-12-18T13:16:46.767Z,9.39
2018-12-18T13:17:46.784Z,9.31
2018-12-18T13:18:46.801Z,9.39